Time;durP1;ratioP1;P1;durP2;ratioP2;P2;SDS_P1;SDS_P2;PMS_P1;PMS_P2;Temp;Humidity;BMP_temperature;BMP_pressure;BME280_temperature;BME280_humidity;BME280_pressure;Samples;Min_cycle;Max_cycle;Signal;HPM_P1;HPM_P2
2020/12/06 00:00:17;;;;;;;23.57;15.57;;;;;;;5.57;96.08;97592.22;5025234;28;20045;-83
2020/12/06 00:03:17;;;;;;;24.77;15.27;;;;;;;5.70;96.79;97613.63;5012503;28;20049;-82
2020/12/06 00:06:22;;;;;;;24.70;15.33;;;;;;;5.79;97.40;97617.00;5012524;28;20045;-83
2020/12/06 00:09:22;;;;;;;21.93;14.53;;;;;;;5.71;96.60;97641.72;5012358;28;20393;-83
2020/12/06 00:12:21;;;;;;;29.33;16.93;;;;;;;5.72;96.31;97614.28;5025880;28;20041;-83
2020/12/06 00:15:20;;;;;;;31.50;18.47;;;;;;;5.64;96.90;97577.31;5047828;28;20040;-83
2020/12/06 00:18:20;;;;;;;26.30;15.80;;;;;;;5.61;96.83;97577.66;5022702;28;20039;-83
2020/12/06 00:21:22;;;;;;;23.90;15.53;;;;;;;6.14;99.70;97563.47;5034998;28;20052;-83
2020/12/06 00:24:22;;;;;;;24.30;15.80;;;;;;;5.99;95.84;97569.78;5048214;28;20380;-83
2020/12/06 00:27:21;;;;;;;23.53;15.10;;;;;;;5.74;95.78;97567.31;5047720;28;20407;-83
2020/12/06 00:30:21;;;;;;;29.53;18.07;;;;;;;5.18;97.40;97559.81;5060981;28;20036;-83
2020/12/06 00:33:23;;;;;;;27.90;16.23;;;;;;;5.02;99.25;97571.31;5060645;28;20478;-82
2020/12/06 00:36:27;;;;;;;33.80;19.20;;;;;;;5.23;98.97;97573.31;5048272;28;20040;-83
2020/12/06 00:39:27;;;;;;;34.37;19.87;;;;;;;5.41;98.68;97558.00;5047675;28;20489;-83
2020/12/06 00:42:27;;;;;;;40.23;20.60;;;;;;;5.63;97.46;97543.13;5061380;28;20063;-82
2020/12/06 00:45:27;;;;;;;;;;;;;;;5.50;98.03;97543.72;5047867;28;20467;-82
2020/12/06 00:48:27;;;;;;;37.07;20.43;;;;;;;5.53;97.72;97561.88;5048409;28;20289;-82
2020/12/06 00:51:27;;;;;;;;;;;;;;;5.40;97.51;97596.00;5023391;28;20410;-82
2020/12/06 00:54:27;;;;;;;29.90;17.83;;;;;;;5.49;98.05;97615.28;5048161;28;19919;-82
2020/12/06 00:57:27;;;;;;;36.50;18.97;;;;;;;5.43;97.98;97622.88;5034855;28;20055;-82
2020/12/06 01:00:27;;;;;;;43.00;21.97;;;;;;;5.67;98.62;97650.97;5047182;28;20495;-83
2020/12/06 01:03:27;;;;;;;31.60;18.60;;;;;;;5.70;98.37;97649.81;5022539;28;20318;-83
2020/12/06 01:06:25;;;;;;;35.10;18.40;;;;;;;5.77;98.33;97664.81;5022281;28;20399;-82
2020/12/06 01:09:25;;;;;;;38.23;20.63;;;;;;;5.74;97.59;97614.09;5034535;28;20047;-83
2020/12/06 01:12:27;;;;;;;35.83;16.53;;;;;;;5.60;97.16;97594.53;5021920;28;20055;-83
2020/12/06 01:15:27;;;;;;;39.58;20.38;;;;;;;6.02;98.23;97619.66;5047654;28;20402;-84
2020/12/06 01:18:27;;;;;;;43.37;21.40;;;;;;;5.93;97.67;97620.75;5060578;28;20032;-84
2020/12/06 01:21:27;;;;;;;34.10;18.37;;;;;;;5.82;96.55;97614.03;5046976;28;20075;-83
2020/12/06 01:24:26;;;;;;;34.00;19.23;;;;;;;5.85;96.33;97612.84;5021905;28;20044;-84
2020/12/06 01:27:26;;;;;;;44.30;23.00;;;;;;;6.01;96.84;97629.44;5047415;28;20036;-85
2020/12/06 01:30:26;;;;;;;39.10;20.63;;;;;;;6.03;97.28;97642.47;5022596;28;20036;-86
2020/12/06 01:33:25;;;;;;;46.70;21.40;;;;;;;6.06;96.87;97631.53;5022090;28;20418;-84
2020/12/06 01:36:26;;;;;;;44.93;21.17;;;;;;;5.97;97.24;97628.16;5039662;28;20043;-85
2020/12/06 01:39:26;;;;;;;37.20;16.30;;;;;;;5.61;96.55;97604.09;5050883;28;20055;-85
2020/12/06 01:42:26;;;;;;;46.20;18.33;;;;;;;5.64;97.26;97582.63;5063988;28;20513;-85
2020/12/06 01:45:26;;;;;;;52.97;21.53;;;;;;;5.69;96.96;97579.41;5067955;28;20048;-83
2020/12/06 01:48:27;;;;;;;69.60;24.77;;;;;;;5.75;95.82;97547.81;5050997;28;20047;-83
2020/12/06 01:51:27;;;;;;;50.83;22.27;;;;;;;5.53;97.66;97564.53;5051528;28;20052;-83
2020/12/06 01:54:25;;;;;;;68.87;27.20;;;;;;;5.52;97.61;97589.31;5025727;28;20051;-83
2020/12/06 01:57:24;;;;;;;55.67;25.30;;;;;;;5.42;97.88;97605.41;5050809;28;20044;-83
2020/12/06 02:00:23;;;;;;;50.80;22.53;;;;;;;5.09;98.67;97602.13;5063955;28;20052;-83
2020/12/06 02:03:27;;;;;;;53.13;25.73;;;;;;;5.20;99.72;97605.38;5051786;28;20039;-83
2020/12/06 02:06:29;;;;;;;59.83;24.67;;;;;;;5.40;100.00;97611.88;5051854;28;20051;-87
2020/12/06 02:09:33;;;;;;;48.73;24.60;;;;;;;5.74;99.83;97614.91;5051517;28;20040;-86
2020/12/06 02:12:38;;;;;;;50.67;25.10;;;;;;;5.52;98.75;97613.09;5063351;28;20044;-85
2020/12/06 02:15:41;;;;;;;77.70;29.23;;;;;;;5.39;99.27;97615.50;5054879;28;20479;-85
2020/12/06 02:18:45;;;;;;;89.70;29.03;;;;;;;5.38;99.19;97619.13;5050761;28;20040;-85
2020/12/06 02:21:48;;;;;;;199.23;33.30;;;;;;;5.43;98.99;97624.72;5050715;28;20043;-85
2020/12/06 02:24:53;;;;;;;57.43;23.50;;;;;;;5.21;99.25;97601.72;5051256;28;20044;-84
2020/12/06 02:27:58;;;;;;;67.70;24.10;;;;;;;4.92;100.00;97597.13;5051352;28;20036;-82
2020/12/06 02:31:10;;;;;;;73.97;26.67;;;;;;;5.20;100.00;97600.91;5051931;28;20044;-83
2020/12/06 02:34:14;;;;;;;164.50;30.43;;;;;;;5.28;100.00;97607.97;5050992;28;20050;-82
2020/12/06 02:37:18;;;;;;;67.10;23.17;;;;;;;4.96;100.00;97628.25;5050265;28;20051;-83
2020/12/06 02:40:21;;;;;;;101.07;26.73;;;;;;;5.11;100.00;97649.50;5038350;28;20044;-83
2020/12/06 02:43:32;;;;;;;151.27;29.27;;;;;;;5.18;100.00;97665.50;5050748;28;20032;-82
2020/12/06 02:46:35;;;;;;;134.43;28.33;;;;;;;5.13;100.00;97644.06;5051358;28;20035;-83
2020/12/06 02:49:39;;;;;;;118.07;26.70;;;;;;;4.92;100.00;97632.25;5063224;28;20401;-84
2020/12/06 02:52:43;;;;;;;58.80;22.77;;;;;;;5.06;100.00;97610.41;5063035;28;20040;-84
2020/12/06 02:55:50;;;;;;;79.03;23.93;;;;;;;5.17;100.00;97600.44;5051515;28;20106;-84
2020/12/06 02:58:54;;;;;;;212.00;29.20;;;;;;;5.27;100.00;97617.72;5050466;28;20040;-84
2020/12/06 03:01:56;;;;;;;302.70;30.47;;;;;;;5.26;100.00;97615.25;5049907;28;20036;-86
2020/12/06 03:05:01;;;;;;;53.77;18.03;;;;;;;4.94;100.00;97609.16;5050167;28;20398;-85
2020/12/06 03:08:09;;;;;;;207.77;27.63;;;;;;;5.03;100.00;97616.03;5051098;28;20035;-85
2020/12/06 03:11:12;;;;;;;105.40;25.77;;;;;;;4.87;100.00;97639.88;5050760;28;20036;-84
2020/12/06 03:14:15;;;;;;;47.83;19.43;;;;;;;4.70;100.00;97649.69;5048833;28;20058;-82
2020/12/06 03:17:17;;;;;;;47.90;20.83;;;;;;;4.85;100.00;97641.03;5062642;28;20040;-82
2020/12/06 03:20:19;;;;;;;61.53;23.70;;;;;;;5.15;100.00;97661.38;5049937;28;20394;-82
2020/12/06 03:23:18;;;;;;;118.80;27.80;;;;;;;5.30;100.00;97653.56;5049525;28;20043;-82
2020/12/06 03:26:17;;;;;;;106.63;27.20;;;;;;;5.33;99.89;97655.81;5049595;28;20051;-81
2020/12/06 03:29:16;;;;;;;137.00;26.23;;;;;;;5.36;99.34;97652.84;5049138;28;20039;-81
2020/12/06 03:32:17;;;;;;;90.97;23.60;;;;;;;5.18;100.00;97647.00;5036333;28;20036;-82
2020/12/06 03:35:20;;;;;;;59.80;22.10;;;;;;;4.94;100.00;97637.38;5049963;28;20048;-82
2020/12/06 03:38:23;;;;;;;85.47;22.00;;;;;;;4.70;100.00;97640.94;5050254;28;20103;-81
2020/12/06 03:41:28;;;;;;;68.10;20.87;;;;;;;4.57;100.00;97636.19;5050061;28;20390;-82
2020/12/06 03:44:33;;;;;;;60.87;21.30;;;;;;;4.58;100.00;97637.00;5050058;28;20059;-84
2020/12/06 03:47:34;;;;;;;41.47;19.03;;;;;;;4.85;100.00;97638.38;5049385;28;20047;-83
2020/12/06 03:50:33;;;;;;;85.73;22.83;;;;;;;5.16;100.00;97664.84;5051882;28;20044;-83
2020/12/06 03:53:34;;;;;;;49.30;20.00;;;;;;;5.07;100.00;97654.31;5049120;28;20040;-84
2020/12/06 03:56:36;;;;;;;41.10;17.97;;;;;;;5.32;100.00;97652.34;5047458;28;20054;-83
2020/12/06 03:59:36;;;;;;;50.13;18.03;;;;;;;5.21;100.00;97633.44;5023606;28;20055;-83
2020/12/06 04:02:36;;;;;;;52.37;18.67;;;;;;;5.05;100.00;97632.53;5061294;28;20036;-84
2020/12/06 04:05:35;;;;;;;59.63;19.70;;;;;;;5.36;100.00;97621.94;5048276;28;20039;-86
2020/12/06 04:08:33;;;;;;;71.70;21.23;;;;;;;5.47;100.00;97622.53;5048106;28;20054;-85
2020/12/06 04:11:32;;;;;;;58.50;20.07;;;;;;;5.29;100.00;97630.75;5048604;28;20047;-83
2020/12/06 04:14:30;;;;;;;48.43;19.43;;;;;;;5.14;100.00;97635.13;5044469;28;20045;-83
2020/12/06 04:17:29;;;;;;;43.47;19.70;;;;;;;5.09;100.00;97625.06;5031716;28;20053;-82
2020/12/06 04:20:29;;;;;;;54.77;20.13;;;;;;;5.38;100.00;97641.09;5032504;28;20049;-83
2020/12/06 04:23:31;;;;;;;57.20;19.37;;;;;;;5.15;100.00;97642.06;5031970;28;20033;-82
2020/12/06 04:26:34;;;;;;;71.77;20.40;;;;;;;5.09;100.00;97633.00;5033016;28;20036;-82
2020/12/06 04:29:37;;;;;;;79.40;20.97;;;;;;;5.19;100.00;97614.31;5045452;28;20033;-82
2020/12/06 04:32:38;;;;;;;63.53;19.70;;;;;;;5.28;99.66;97602.69;5032162;28;20499;-82
2020/12/06 04:35:37;;;;;;;87.87;21.73;;;;;;;5.16;100.00;97604.91;5057239;28;20060;-82
2020/12/06 04:38:38;;;;;;;48.50;17.43;;;;;;;4.70;100.00;97609.25;5032009;28;20059;-81
2020/12/06 04:41:42;;;;;;;77.23;20.13;;;;;;;4.88;100.00;97633.59;5033078;28;20049;-82
2020/12/06 04:44:50;;;;;;;45.60;16.83;;;;;;;5.13;100.00;97654.63;5032133;28;20052;-82
2020/12/06 04:48:03;;;;;;;61.53;19.50;;;;;;;5.24;100.00;97678.00;5031808;28;20055;-81
2020/12/06 04:51:08;;;;;;;68.90;20.30;;;;;;;5.10;100.00;97669.00;5031569;28;20057;-81
2020/12/06 04:54:08;;;;;;;51.60;17.23;;;;;;;5.18;100.00;97674.25;5044151;28;20502;-82
2020/12/06 04:57:12;;;;;;;47.07;19.80;;;;;;;5.05;100.00;97655.50;5044592;28;20048;-82
2020/12/06 05:00:12;;;;;;;63.70;18.67;;;;;;;5.32;100.00;97631.22;5045100;28;20075;-84
2020/12/06 05:03:12;;;;;;;49.67;18.63;;;;;;;5.50;100.00;97623.03;5031536;28;20048;-84
2020/12/06 05:06:26;;;;;;;49.17;15.73;;;;;;;5.25;100.00;97614.44;5035402;28;20044;-85
2020/12/06 05:09:29;;;;;;;52.63;16.53;;;;;;;5.28;100.00;97610.63;5043991;28;20092;-84
2020/12/06 05:12:35;;;;;;;47.27;16.80;;;;;;;5.29;100.00;97625.47;5034004;28;20048;-84
2020/12/06 05:15:45;;;;;;;48.70;17.00;;;;;;;4.99;100.00;97621.81;5049505;28;20067;-84
2020/12/06 05:19:13;;;;;;;53.33;18.37;;;;;;;5.23;100.00;97619.06;5061615;28;20036;-84
2020/12/06 05:22:11;;;;;;;45.33;17.70;;;;;;;5.21;100.00;97623.69;5047833;28;20499;-84
2020/12/06 05:25:10;;;;;;;51.73;17.83;;;;;;;5.33;100.00;97626.75;5047541;28;20044;-84
2020/12/06 05:28:10;;;;;;;53.30;17.17;;;;;;;5.50;99.39;97606.34;5046700;28;20113;-83
2020/12/06 05:31:09;;;;;;;71.00;19.20;;;;;;;5.37;98.98;97580.50;5047342;28;20036;-84
2020/12/06 05:34:08;;;;;;;38.90;16.33;;;;;;;5.36;99.77;97590.25;5047758;28;20494;-84
2020/12/06 05:37:09;;;;;;;64.28;17.02;;;;;;;5.52;100.00;97594.59;5060761;28;20380;-83
2020/12/06 05:40:16;;;;;;;39.43;15.57;;;;;;;5.50;99.36;97580.72;5046772;28;20515;-83
2020/12/06 05:43:20;;;;;;;43.67;17.87;;;;;;;5.47;98.99;97570.50;5050985;28;20048;-83
2020/12/06 05:46:20;;;;;;;39.90;16.63;;;;;;;5.52;99.14;97564.69;5047792;28;20055;-83
2020/12/06 05:49:23;;;;;;;43.80;16.30;;;;;;;5.31;99.05;97575.94;5047336;28;20044;-84
2020/12/06 05:52:22;;;;;;;44.33;16.30;;;;;;;5.53;99.57;97579.56;5046480;28;20056;-84
2020/12/06 05:55:20;;;;;;;67.03;20.70;;;;;;;5.55;98.72;97561.69;5046225;28;20040;-84
2020/12/06 05:58:22;;;;;;;51.93;18.90;;;;;;;5.58;99.61;97559.50;5047568;28;20040;-85
2020/12/06 06:01:23;;;;;;;46.80;18.30;;;;;;;5.66;99.69;97559.47;5046282;28;20058;-87
2020/12/06 06:04:28;;;;;;;45.60;18.20;;;;;;;5.23;99.87;97557.47;5060336;28;20043;-84
2020/12/06 06:07:30;;;;;;;41.77;16.57;;;;;;;5.41;99.56;97550.91;5046840;28;20044;-84
2020/12/06 06:10:37;;;;;;;74.30;20.63;;;;;;;5.60;99.29;97562.81;5050162;28;20047;-84
2020/12/06 06:13:48;;;;;;;65.63;19.53;;;;;;;5.41;99.05;97571.22;5021308;28;20059;-84
2020/12/06 06:16:54;;;;;;;69.07;20.50;;;;;;;5.29;99.29;97565.53;5023240;28;20070;-83
2020/12/06 06:19:59;;;;;;;68.47;19.43;;;;;;;5.40;98.96;97566.94;5048243;28;20048;-82
2020/12/06 06:23:12;;;;;;;75.90;21.67;;;;;;;5.52;97.91;97562.06;5009441;28;20237;-82
2020/12/06 06:26:17;;;;;;;85.03;22.77;;;;;;;5.23;99.10;97553.00;5005863;28;20408;-82
2020/12/06 06:29:28;;;;;;;400.80;33.83;;;;;;;5.12;100.00;97560.50;4969225;28;20054;-82
2020/12/06 06:33:28;;;;;;;147.63;23.60;;;;;;;4.90;100.00;97568.22;4953169;28;20050;-82
2020/12/06 06:36:39;;;;;;;107.10;23.17;;;;;;;4.97;100.00;97571.00;4954010;28;20051;-81
2020/12/06 06:39:44;;;;;;;194.53;28.53;;;;;;;5.11;100.00;97580.00;4963350;28;20394;-82
2020/12/06 06:42:48;;;;;;;165.70;27.23;;;;;;;5.06;100.00;97569.97;4963705;28;20077;-82
2020/12/06 06:45:55;;;;;;;90.03;23.67;;;;;;;5.08;100.00;97570.59;4940509;28;20050;-81
2020/12/06 06:48:58;;;;;;;111.43;26.80;;;;;;;5.29;99.75;97601.69;4940683;28;20053;-81
2020/12/06 06:52:04;;;;;;;95.23;25.60;;;;;;;5.32;99.59;97603.97;4939952;28;20421;-82
2020/12/06 06:55:10;;;;;;;97.47;25.57;;;;;;;5.33;99.34;97584.47;4962814;28;20046;-83
2020/12/06 06:58:18;;;;;;;107.27;26.07;;;;;;;5.27;99.20;97564.88;4951589;28;20054;-84
2020/12/06 07:01:23;;;;;;;74.57;23.23;;;;;;;5.19;100.00;97558.84;4940587;28;20045;-85
2020/12/06 07:04:23;;;;;;;52.80;19.70;;;;;;;5.26;99.70;97557.94;4950911;28;20070;-83
2020/12/06 07:07:33;;;;;;;68.33;20.33;;;;;;;5.51;98.19;97540.09;4939409;28;20055;-84
2020/12/06 07:10:34;;;;;;;62.93;19.93;;;;;;;5.64;96.74;97524.44;4939363;28;20038;-83
2020/12/06 07:13:43;;;;;;;78.07;21.40;;;;;;;5.42;97.83;97512.91;4948435;28;20155;-83
2020/12/06 07:16:49;;;;;;;61.63;18.43;;;;;;;5.34;98.08;97517.41;4945648;28;20050;-83
2020/12/06 07:19:52;;;;;;;80.33;22.40;;;;;;;5.30;98.32;97539.94;4948547;28;20144;-83
2020/12/06 07:22:56;;;;;;;70.93;22.07;;;;;;;5.00;100.00;97539.78;4945006;28;20042;-83
2020/12/06 07:26:05;;;;;;;44.50;17.40;;;;;;;4.69;100.00;97517.84;4943188;28;20047;-83
2020/12/06 07:29:07;;;;;;;67.37;21.93;;;;;;;4.75;100.00;97521.59;4948682;28;20054;-83
2020/12/06 07:32:14;;;;;;;87.33;23.47;;;;;;;4.81;100.00;97540.22;4951441;28;20050;-83
2020/12/06 07:35:23;;;;;;;57.13;20.37;;;;;;;4.72;100.00;97551.81;4969586;28;20056;-83
2020/12/06 07:38:26;;;;;;;65.17;22.77;;;;;;;4.87;100.00;97541.34;4975708;28;20053;-83
2020/12/06 07:41:30;;;;;;;83.93;23.17;;;;;;;5.06;100.00;97551.47;5026456;28;20036;-83
2020/12/06 07:44:45;;;;;;;52.57;21.63;;;;;;;4.84;100.00;97549.63;5015582;28;20041;-83
2020/12/06 07:47:51;;;;;;;43.77;19.23;;;;;;;4.87;100.00;97550.09;5016148;28;20049;-83
2020/12/06 07:50:57;;;;;;;51.73;21.07;;;;;;;5.01;100.00;97549.34;5016711;28;20045;-83
2020/12/06 07:54:03;;;;;;;54.43;22.43;;;;;;;5.36;100.00;97555.06;5013760;28;20041;-83
2020/12/06 07:57:07;;;;;;;43.70;17.73;;;;;;;5.35;100.00;97551.59;5013599;28;20053;-83
2020/12/06 08:00:18;;;;;;;54.60;21.03;;;;;;;5.50;100.00;97564.88;5020683;28;20403;-83
2020/12/06 08:03:22;;;;;;;51.23;20.40;;;;;;;5.61;100.00;97545.13;5008180;28;20049;-84
2020/12/06 08:06:28;;;;;;;56.77;21.77;;;;;;;5.66;99.67;97532.22;5007834;28;20404;-85
2020/12/06 08:09:39;;;;;;;64.27;22.50;;;;;;;5.81;98.84;97536.50;5009473;28;20040;-84
2020/12/06 08:12:47;;;;;;;96.05;26.45;;;;;;;6.10;96.04;97527.00;5009921;28;20594;-83
2020/12/06 08:15:50;;;;;;;68.27;21.83;;;;;;;5.57;97.53;97560.50;5012104;28;20043;-83
2020/12/06 08:18:59;;;;;;;62.90;21.20;;;;;;;5.58;98.75;97582.47;5011435;28;20048;-83
2020/12/06 08:22:05;;;;;;;70.20;22.43;;;;;;;5.44;99.10;97595.47;5048252;28;20055;-83
2020/12/06 08:25:10;;;;;;;48.90;18.63;;;;;;;5.64;97.62;97601.13;5047578;28;20050;-83
2020/12/06 08:28:19;;;;;;;52.17;20.77;;;;;;;5.83;96.44;97597.16;5012566;28;20086;-83
2020/12/06 08:31:25;;;;;;;120.47;28.10;;;;;;;5.68;96.56;97594.47;5052232;28;20044;-82
2020/12/06 08:34:28;;;;;;;648.50;52.27;;;;;;;5.76;96.22;97589.13;5046492;28;20423;-83
2020/12/06 08:37:38;;;;;;;501.80;45.97;;;;;;;5.43;97.11;97604.38;5010947;28;20438;-82
2020/12/06 08:40:40;;;;;;;336.63;39.87;;;;;;;5.26;97.93;97602.03;5010669;28;20047;-82
2020/12/06 08:43:49;;;;;;;153.00;33.57;;;;;;;5.14;98.21;97595.50;5010422;28;20056;-82
2020/12/06 08:47:00;;;;;;;87.47;31.63;;;;;;;4.97;99.50;97608.78;5048877;28;20044;-83
2020/12/06 08:50:12;;;;;;;133.10;34.10;;;;;;;4.92;100.00;97608.50;5016170;28;20036;-82
2020/12/06 08:53:15;;;;;;;71.07;27.27;;;;;;;4.64;100.00;97589.63;5034786;28;20479;-83
2020/12/06 08:56:27;;;;;;;46.53;22.93;;;;;;;4.38;100.00;97556.56;5047532;28;20111;-83
2020/12/06 08:59:29;;;;;;;62.50;26.30;;;;;;;4.35;100.00;97557.75;5052159;28;20114;-83
2020/12/06 09:02:34;;;;;;;57.77;26.07;;;;;;;4.38;100.00;97564.50;5049043;28;20647;-83
2020/12/06 09:05:38;;;;;;;75.93;28.87;;;;;;;4.48;100.00;97583.59;5035973;28;20044;-83
2020/12/06 09:08:37;;;;;;;40.92;21.58;;;;;;;4.38;100.00;97581.13;5047863;28;20055;-82
2020/12/06 09:11:39;;;;;;;64.13;26.67;;;;;;;4.81;100.00;97592.22;5047337;28;20067;-81
2020/12/06 09:14:41;;;;;;;57.10;23.83;;;;;;;5.16;98.21;97614.66;5047427;28;20051;-82
2020/12/06 09:17:46;;;;;;;69.07;27.00;;;;;;;5.13;98.58;97625.56;5060589;28;20498;-82
2020/12/06 09:21:01;;;;;;;49.60;24.33;;;;;;;4.93;99.27;97626.00;5053005;28;20052;-83
2020/12/06 09:24:02;;;;;;;56.53;24.53;;;;;;;5.10;98.32;97618.78;5047218;28;20052;-84
2020/12/06 09:27:19;;;;;;;58.80;24.60;;;;;;;4.95;99.51;97613.44;5049589;28;20044;-85
2020/12/06 09:30:22;;;;;;;42.57;21.10;;;;;;;4.97;99.27;97613.25;5051879;28;20502;-84
2020/12/06 09:33:31;;;;;;;37.50;20.10;;;;;;;4.68;100.00;97617.34;5048481;28;20044;-83
2020/12/06 09:36:52;;;;;;;37.50;19.53;;;;;;;4.75;100.00;97622.75;5047158;28;20040;-84
2020/12/06 09:40:22;;;;;;;28.73;15.50;;;;;;;4.52;100.00;97617.38;5054147;28;20048;-85
2020/12/06 09:44:12;;;;;;;23.33;14.63;;;;;;;4.62;100.00;97617.19;5023121;28;20040;-84
2020/12/06 09:47:16;;;;;;;35.07;19.77;;;;;;;4.79;100.00;97625.88;5047958;28;20364;-84
2020/12/06 09:50:18;;;;;;;33.87;18.00;;;;;;;5.02;99.55;97640.81;5048099;28;20048;-84
2020/12/06 09:53:21;;;;;;;32.67;17.53;;;;;;;4.98;99.93;97641.31;5047074;28;20051;-84
2020/12/06 09:56:31;;;;;;;24.83;16.03;;;;;;;5.04;99.75;97638.00;5050190;28;20043;-85
2020/12/06 10:00:06;;;;;;;28.47;16.43;;;;;;;5.00;99.61;97632.22;5050416;28;20051;-84
2020/12/06 10:03:57;;;;;;;20.73;14.23;;;;;;;4.75;100.00;97622.75;5046063;28;20040;-84
2020/12/06 10:07:15;;;;;;;19.50;13.90;;;;;;;4.66;99.88;97621.97;5051146;28;20055;-84
2020/12/06 10:10:22;;;;;;;14.80;10.47;;;;;;;4.60;99.28;97613.91;5064251;28;20040;-84
2020/12/06 10:13:59;;;;;;;14.97;10.77;;;;;;;4.71;99.66;97608.28;5059960;28;20048;-84
2020/12/06 10:17:38;;;;;;;15.63;10.97;;;;;;;4.77;99.53;97599.66;5019318;28;20049;-84
2020/12/06 10:20:45;;;;;;;16.30;11.07;;;;;;;4.99;99.61;97598.88;4993323;28;20057;-84
2020/12/06 10:23:51;;;;;;;12.63;9.87;;;;;;;4.87;99.13;97594.97;4930899;29;20059;-84
2020/12/06 10:26:58;;;;;;;12.07;9.57;;;;;;;4.98;98.86;97589.31;4937855;28;20365;-85
2020/12/06 10:30:07;;;;;;;12.77;9.63;;;;;;;5.06;98.79;97591.94;4940589;29;20047;-86
2020/12/06 10:33:13;;;;;;;12.30;8.60;;;;;;;4.96;97.84;97583.38;4938011;29;20058;-88
2020/12/06 10:36:24;;;;;;;12.53;9.23;;;;;;;5.39;99.29;97566.13;4902490;29;20051;-86
2020/12/06 10:39:30;;;;;;;9.93;7.50;;;;;;;5.30;97.28;97571.63;4937024;29;20050;-85
2020/12/06 10:42:33;;;;;;;8.60;6.90;;;;;;;5.25;97.95;97555.47;4937545;29;20059;-86
2020/12/06 10:45:34;;;;;;;10.00;6.67;;;;;;;5.19;96.87;97548.25;4939854;29;20187;-85
2020/12/06 10:48:36;;;;;;;11.03;7.47;;;;;;;5.33;98.52;97544.84;4925165;29;20058;-85
2020/12/06 10:51:40;;;;;;;9.27;6.63;;;;;;;5.45;97.94;97544.25;4941150;29;20490;-86
2020/12/06 10:54:38;;;;;;;8.13;5.80;;;;;;;5.48;97.13;97542.25;4973478;28;20046;-85
2020/12/06 10:57:39;;;;;;;6.17;5.10;;;;;;;5.52;96.32;97544.38;4983007;28;20046;-84
2020/12/06 11:00:39;;;;;;;5.67;4.87;;;;;;;5.54;96.68;97538.91;4982481;28;20061;-85
2020/12/06 11:03:40;;;;;;;5.53;4.63;;;;;;;5.45;97.40;97530.22;4969736;28;20400;-86
2020/12/06 11:06:40;;;;;;;5.57;4.43;;;;;;;5.61;97.60;97519.50;4982601;28;20046;-85
2020/12/06 11:09:39;;;;;;;6.47;5.03;;;;;;;5.78;98.24;97509.63;4969370;28;20049;-85
2020/12/06 11:12:41;;;;;;;6.03;4.93;;;;;;;5.97;97.33;97503.00;4969015;28;20093;-86
2020/12/06 11:15:40;;;;;;;5.97;4.47;;;;;;;6.00;96.93;97492.88;4962814;28;20057;-84
2020/12/06 11:18:40;;;;;;;6.43;5.07;;;;;;;6.25;97.37;97495.25;4962673;28;20500;-85
2020/12/06 11:21:40;;;;;;;5.80;4.83;;;;;;;6.49;97.80;97484.38;5017333;28;20052;-85
2020/12/06 11:24:38;;;;;;;5.40;4.90;;;;;;;6.71;97.66;97464.03;5013637;28;20036;-85
2020/12/06 11:27:37;;;;;;;4.63;3.72;;;;;;;6.68;96.63;97454.63;5013381;28;20392;-84
2020/12/06 11:30:36;;;;;;;3.30;3.00;;;;;;;6.65;94.86;97454.19;5013826;28;20064;-84
2020/12/06 11:33:35;;;;;;;2.70;2.50;;;;;;;6.62;94.95;97450.06;5013910;28;20041;-84
2020/12/06 11:36:33;;;;;;;2.90;2.50;;;;;;;6.73;95.52;97435.53;5025475;28;20124;-85
2020/12/06 11:39:30;;;;;;;3.07;2.77;;;;;;;7.07;95.94;97426.91;5025610;28;20033;-84
2020/12/06 11:42:29;;;;;;;4.30;3.63;;;;;;;7.10;93.40;97419.38;5013656;28;20041;-85
2020/12/06 11:45:29;;;;;;;4.20;3.67;;;;;;;7.42;94.39;97409.25;5025880;28;20052;-85
2020/12/06 11:48:28;;;;;;;5.03;3.97;;;;;;;7.28;93.19;97403.03;5013480;28;20045;-85
2020/12/06 11:51:27;;;;;;;6.45;4.97;;;;;;;7.29;94.00;97404.66;5025314;28;20588;-85
2020/12/06 11:54:27;;;;;;;6.28;5.63;;;;;;;7.22;94.21;97387.88;5013492;28;20079;-84
2020/12/06 11:57:29;;;;;;;7.63;6.15;;;;;;;7.16;94.13;97378.06;5014141;28;20036;-86
2020/12/06 12:00:27;;;;;;;7.53;6.15;;;;;;;7.10;94.16;97352.31;5025138;28;20041;-85
2020/12/06 12:03:30;;;;;;;8.05;6.43;;;;;;;7.09;93.18;97346.19;5025527;28;20483;-85
2020/12/06 12:06:28;;;;;;;8.27;6.35;;;;;;;7.17;93.89;97340.75;5012262;28;20056;-86
2020/12/06 12:09:28;;;;;;;8.75;6.35;;;;;;;7.40;94.29;97340.50;5013087;28;20051;-85
2020/12/06 12:12:28;;;;;;;6.97;6.10;;;;;;;7.17;93.61;97335.47;5013055;28;20415;-85
2020/12/06 12:15:25;;;;;;;8.75;6.55;;;;;;;7.36;92.81;97351.69;5013095;28;20045;-85
2020/12/06 12:18:24;;;;;;;7.45;6.15;;;;;;;7.33;92.09;97346.75;5024349;28;20060;-85
2020/12/06 12:21:24;;;;;;;7.43;6.07;;;;;;;7.22;92.63;97334.88;5025339;28;20045;-84
2020/12/06 12:24:22;;;;;;;6.78;5.38;;;;;;;7.32;93.58;97324.72;5024802;28;20373;-85
2020/12/06 12:27:28;;;;;;;8.18;4.45;;;;;;;7.46;94.93;97333.59;5049985;28;20056;-86
2020/12/06 12:30:32;;;;;;;4.93;3.88;;;;;;;7.44;93.76;97325.81;5026033;28;20051;-84
2020/12/06 12:33:38;;;;;;;6.03;4.40;;;;;;;7.32;93.79;97315.97;5025525;28;20066;-84
2020/12/06 12:36:45;;;;;;;2.95;2.70;;;;;;;7.41;93.39;97318.28;5025468;28;20064;-83
2020/12/06 12:39:56;;;;;;;1.60;1.50;;;;;;;7.47;92.85;97321.97;5024926;28;20056;-83
2020/12/06 12:43:23;;;;;;;1.40;1.30;;;;;;;7.40;93.33;97321.13;5025278;28;20048;-83
2020/12/06 12:46:27;;;;;;;1.63;1.30;;;;;;;7.42;92.79;97325.22;5036778;28;20056;-83
2020/12/06 12:50:04;;;;;;;1.15;0.90;;;;;;;7.59;92.97;97331.84;4992684;28;20054;-84
2020/12/06 12:53:16;;;;;;;1.10;1.10;;;;;;;7.91;92.92;97335.66;4981044;28;20362;-85
2020/12/06 12:56:21;;;;;;;1.00;0.90;;;;;;;7.94;91.22;97327.31;5009240;28;20034;-84
2020/12/06 12:59:28;;;;;;;0.90;0.90;;;;;;;7.82;90.60;97315.63;4968536;28;20065;-85
2020/12/06 13:02:36;;;;;;;1.55;0.57;;;;;;;7.84;90.27;97310.13;4968321;28;20080;-84
2020/12/06 13:05:39;;;;;;;1.05;0.60;;;;;;;7.72;91.38;97309.88;4967975;28;20520;-85
2020/12/06 13:08:44;;;;;;;0.50;0.50;;;;;;;7.79;91.00;97317.88;4968173;28;20064;-85
2020/12/06 13:12:36;;;;;;;0.40;0.40;;;;;;;7.77;91.16;97326.03;4996739;28;20062;-86
2020/12/06 13:16:05;;;;;;;1.42;0.70;;;;;;;7.79;91.02;97318.66;4997882;28;20042;-85
2020/12/06 13:19:12;;;;;;;0.88;0.63;;;;;;;7.88;93.35;97324.63;4962489;28;20053;-86
2020/12/06 13:22:13;;;;;;;1.30;1.20;;;;;;;8.22;93.53;97321.91;4980235;28;20037;-87
2020/12/06 13:25:11;;;;;;;0.63;0.60;;;;;;;8.48;93.40;97304.44;4997600;28;20045;-86
2020/12/06 13:28:10;;;;;;;3.90;3.10;;;;;;;8.74;93.33;97303.63;5024470;28;20500;-86
2020/12/06 13:31:09;;;;;;;6.68;4.10;;;;;;;8.78;93.28;97304.84;5028746;28;20052;-87
2020/12/06 13:34:08;;;;;;;4.72;3.90;;;;;;;8.89;93.98;97304.25;5028032;28;20056;-86
2020/12/06 13:37:09;;;;;;;5.10;3.85;;;;;;;9.06;93.06;97300.16;5027969;28;20072;-86
2020/12/06 13:40:08;;;;;;;6.18;4.00;;;;;;;9.24;92.34;97300.31;5027955;28;20049;-86
2020/12/06 13:43:09;;;;;;;5.57;4.13;;;;;;;9.18;91.29;97298.50;5028321;28;20052;-87
2020/12/06 13:46:10;;;;;;;7.20;4.40;;;;;;;9.22;91.30;97294.38;5028026;28;20045;-87
2020/12/06 13:49:10;;;;;;;4.63;3.42;;;;;;;9.14;90.95;97293.78;5028350;28;20041;-89
2020/12/06 13:52:11;;;;;;;5.55;3.95;;;;;;;9.15;91.65;97284.81;5028515;28;20064;-87
2020/12/06 13:55:11;;;;;;;5.60;3.63;;;;;;;9.14;91.89;97286.63;5027613;28;20048;-87
2020/12/06 13:58:13;;;;;;;6.43;3.95;;;;;;;9.04;92.50;97288.91;5028101;28;20048;-86
2020/12/06 14:01:16;;;;;;;4.55;3.80;;;;;;;8.85;92.28;97297.72;5028228;28;20044;-86
2020/12/06 14:04:18;;;;;;;8.20;4.63;;;;;;;8.85;92.43;97311.00;5028186;28;20396;-87
2020/12/06 14:07:19;;;;;;;8.43;4.68;;;;;;;8.77;93.41;97317.31;5027885;28;20391;-87
2020/12/06 14:10:20;;;;;;;;;;;;;;;8.45;93.24;97323.41;5028240;28;20476;-86
2020/12/06 14:13:21;;;;;;;8.20;5.22;;;;;;;8.33;92.74;97320.53;5031185;28;20286;-86
2020/12/06 14:16:21;;;;;;;9.88;6.57;;;;;;;8.14;93.64;97311.44;5023043;28;20037;-86
2020/12/06 14:19:25;;;;;;;3.50;2.72;;;;;;;8.26;93.05;97317.03;5022733;28;20071;-86